createdAt,value
2019-05-16T00:00:52.269Z,5.37
2019-05-16T00:03:45.106Z,5.67
2019-05-16T00:06:39.294Z,4.97
2019-05-16T00:09:31.725Z,5.63
2019-05-16T00:12:33.282Z,5.40
2019-05-16T00:15:32.587Z,5.57
2019-05-16T00:18:22.689Z,6.17
2019-05-16T00:21:11.352Z,6.43
2019-05-16T00:24:05.007Z,6.30
2019-05-16T00:26:54.796Z,6.40
2019-05-16T00:29:44.473Z,6.37
2019-05-16T00:32:38.947Z,7.00
2019-05-16T00:35:28.832Z,7.23
2019-05-16T00:38:27.623Z,7.23
2019-05-16T00:41:19.134Z,7.73
2019-05-16T00:44:08.538Z,8.40
2019-05-16T00:47:01.970Z,7.90
2019-05-16T00:49:52.913Z,9.00
2019-05-16T00:52:42.074Z,7.37
2019-05-16T00:55:38.871Z,7.90
2019-05-16T00:58:30.116Z,7.30
2019-05-16T01:01:19.152Z,8.17
2019-05-16T01:04:09.083Z,7.63
2019-05-16T01:07:07.668Z,8.00
2019-05-16T01:10:01.853Z,7.97
2019-05-16T01:12:52.252Z,7.60
2019-05-16T01:16:08.687Z,10.53
2019-05-16T01:19:05.557Z,8.50
2019-05-16T01:22:03.557Z,8.47
2019-05-16T01:25:19.653Z,8.40
2019-05-16T01:27:52.661Z,8.70
2019-05-16T01:30:58.011Z,8.67
2019-05-16T01:33:50.128Z,9.03
2019-05-16T01:36:49.425Z,9.60
2019-05-16T01:39:41.757Z,9.43
2019-05-16T01:42:38.311Z,9.60
2019-05-16T01:45:40.182Z,9.93
2019-05-16T01:48:35.190Z,9.50
2019-05-16T01:51:25.787Z,11.27
2019-05-16T01:54:30.724Z,9.50
2019-05-16T01:57:28.213Z,8.40
2019-05-16T02:00:37.065Z,9.87
2019-05-16T02:03:28.123Z,8.87
2019-05-16T02:06:19.239Z,9.60
2019-05-16T02:09:15.529Z,11.33
2019-05-16T02:12:10.784Z,10.70
2019-05-16T02:15:00.858Z,9.20
2019-05-16T02:17:59.848Z,10.30
2019-05-16T02:21:00.877Z,9.63
2019-05-16T02:23:58.665Z,9.77
2019-05-16T02:26:54.134Z,9.40
2019-05-16T02:29:47.555Z,10.70
2019-05-16T02:32:41.769Z,11.20
2019-05-16T02:35:40.727Z,10.20
2019-05-16T02:39:01.104Z,9.83
2019-05-16T02:42:14.886Z,10.03
2019-05-16T02:45:24.784Z,14.80
2019-05-16T02:48:03.964Z,9.80
2019-05-16T02:50:55.167Z,11.30
2019-05-16T02:53:51.005Z,10.87
2019-05-16T02:56:42.196Z,10.83
2019-05-16T02:59:41.623Z,11.07
2019-05-16T03:02:42.698Z,11.37
2019-05-16T03:05:35.828Z,9.80
2019-05-16T03:11:46.817Z,10.53
2019-05-16T03:14:47.111Z,10.17
2019-05-16T03:18:03.850Z,10.87
2019-05-16T03:20:51.191Z,11.30
2019-05-16T03:24:01.972Z,10.30
2019-05-16T03:27:01.739Z,12.67
2019-05-16T03:30:05.050Z,9.80
2019-05-16T03:33:47.321Z,12.70
2019-05-16T03:36:43.909Z,11.30
2019-05-16T03:39:40.639Z,12.27
2019-05-16T03:42:43.229Z,11.17
2019-05-16T03:45:36.198Z,11.90
2019-05-16T03:48:31.664Z,12.30
2019-05-16T03:51:30.693Z,13.00
2019-05-16T03:54:22.724Z,11.50
2019-05-16T03:57:16.303Z,14.03
2019-05-16T04:00:05.684Z,10.20
2019-05-16T04:03:01.058Z,11.00
2019-05-16T04:05:52.475Z,10.93
2019-05-16T04:08:53.245Z,11.57
2019-05-16T04:11:43.431Z,11.23
2019-05-16T04:14:40.887Z,10.87
2019-05-16T04:17:40.822Z,11.57
2019-05-16T04:20:30.468Z,11.30
2019-05-16T04:23:22.003Z,10.90
2019-05-16T04:26:24.800Z,10.80
2019-05-16T04:29:13.144Z,9.97
2019-05-16T04:32:06.087Z,10.10
2019-05-16T04:34:53.559Z,10.97
2019-05-16T04:37:42.142Z,10.20
2019-05-16T04:40:31.177Z,10.33
2019-05-16T04:43:22.171Z,10.70
2019-05-16T04:46:11.378Z,10.03
2019-05-16T04:48:57.186Z,9.30
2019-05-16T04:51:45.189Z,11.90
2019-05-16T04:54:33.433Z,10.93
2019-05-16T04:57:21.135Z,10.60
2019-05-16T05:00:11.211Z,11.40
2019-05-16T05:03:01.322Z,11.07
2019-05-16T05:05:50.914Z,9.90
2019-05-16T05:08:52.938Z,10.20
2019-05-16T05:11:27.032Z,10.57
2019-05-16T05:14:15.190Z,10.07
2019-05-16T05:17:05.348Z,10.60
2019-05-16T05:19:52.256Z,10.60
2019-05-16T05:22:40.195Z,10.63
2019-05-16T05:25:27.832Z,11.00
2019-05-16T05:28:16.085Z,10.30
2019-05-16T05:31:03.835Z,12.27
2019-05-16T05:33:51.589Z,11.17
2019-05-16T05:36:40.866Z,11.40
2019-05-16T05:39:30.300Z,10.40
2019-05-16T05:42:19.838Z,10.33
2019-05-16T05:45:07.276Z,13.60
2019-05-16T05:47:55.301Z,9.27
2019-05-16T05:50:43.413Z,11.57
2019-05-16T05:53:31.317Z,12.73
2019-05-16T05:56:19.728Z,9.73
2019-05-16T05:59:07.636Z,10.60
2019-05-16T06:01:56.368Z,10.93
2019-05-16T06:04:43.737Z,9.93
2019-05-16T06:07:31.157Z,9.00
2019-05-16T06:10:20.057Z,9.83
2019-05-16T06:13:07.861Z,9.27
2019-05-16T06:15:55.622Z,9.40
2019-05-16T06:18:43.127Z,10.47
2019-05-16T06:21:33.166Z,8.83
2019-05-16T06:24:20.395Z,8.87
2019-05-16T06:27:09.848Z,8.73
2019-05-16T06:30:00.327Z,8.20
2019-05-16T06:32:47.363Z,8.70
2019-05-16T06:35:35.341Z,11.53
2019-05-16T06:38:23.574Z,10.27
2019-05-16T06:41:11.635Z,8.50
2019-05-16T06:43:59.933Z,9.37
2019-05-16T06:47:00.680Z,9.00
2019-05-16T06:49:37.334Z,8.40
2019-05-16T06:52:25.656Z,8.70
2019-05-16T06:55:13.620Z,8.77
2019-05-16T06:58:01.988Z,8.53
2019-05-16T07:00:52.107Z,7.83
2019-05-16T07:03:40.140Z,8.67
2019-05-16T07:06:48.396Z,9.40
2019-05-16T07:09:17.945Z,8.60
2019-05-16T07:12:05.584Z,7.80
2019-05-16T07:14:53.136Z,7.90
2019-05-16T07:17:41.210Z,9.03
2019-05-16T07:20:30.170Z,9.40
2019-05-16T07:23:20.627Z,9.77
2019-05-16T07:26:09.937Z,9.37
2019-05-16T07:29:00.287Z,9.50
2019-05-16T07:31:47.548Z,9.27
2019-05-16T07:34:35.125Z,9.97
2019-05-16T07:37:23.157Z,10.97
2019-05-16T07:40:19.333Z,10.73
2019-05-16T07:43:01.071Z,9.10
2019-05-16T07:45:50.905Z,13.13
2019-05-16T07:48:40.308Z,10.57
2019-05-16T07:51:30.858Z,10.83
2019-05-16T07:54:17.636Z,9.63
2019-05-16T07:57:16.073Z,9.73
2019-05-16T07:59:54.444Z,10.00
2019-05-16T08:02:42.409Z,9.93
2019-05-16T08:05:33.354Z,9.70
2019-05-16T08:08:23.917Z,11.73
2019-05-16T08:11:11.743Z,9.17
2019-05-16T08:14:00.998Z,9.27
2019-05-16T08:16:50.164Z,9.10
2019-05-16T08:19:39.986Z,10.43
2019-05-16T08:22:26.930Z,9.27
2019-05-16T08:25:14.675Z,9.60
2019-05-16T08:28:03.059Z,11.40
2019-05-16T08:30:52.794Z,9.80
2019-05-16T08:33:41.545Z,9.53
2019-05-16T08:36:31.340Z,9.67
2019-05-16T08:39:21.445Z,9.70
2019-05-16T08:42:13.035Z,9.67
2019-05-16T08:45:01.173Z,10.10
2019-05-16T08:47:47.876Z,10.33
2019-05-16T08:50:35.708Z,11.10
2019-05-16T08:53:23.693Z,9.97
2019-05-16T08:56:13.218Z,10.03
2019-05-16T08:59:02.418Z,9.70
2019-05-16T09:01:57.547Z,16.03
2019-05-16T09:04:43.894Z,10.07
2019-05-16T09:07:31.861Z,10.17
2019-05-16T09:10:51.394Z,9.50
2019-05-16T09:13:08.554Z,8.20
2019-05-16T09:15:57.159Z,9.17
2019-05-16T09:18:45.938Z,8.93
2019-05-16T09:21:34.194Z,10.30
2019-05-16T09:24:22.300Z,9.43
2019-05-16T09:27:12.764Z,9.40
2019-05-16T09:30:00.173Z,9.10
2019-05-16T09:32:48.213Z,9.77
2019-05-16T09:35:36.973Z,9.27
2019-05-16T09:38:28.465Z,11.30
2019-05-16T09:41:16.891Z,8.83
2019-05-16T09:44:04.973Z,9.73
2019-05-16T09:46:52.866Z,9.20
2019-05-16T09:49:41.037Z,15.87
2019-05-16T09:52:28.939Z,8.63
2019-05-16T09:55:17.904Z,8.63
2019-05-16T09:58:07.323Z,8.07
2019-05-16T10:00:57.549Z,8.07
2019-05-16T10:03:47.637Z,8.53
2019-05-16T10:06:34.162Z,8.07
2019-05-16T10:09:22.126Z,7.60
2019-05-16T10:12:15.211Z,8.37
2019-05-16T10:14:59.789Z,7.47
2019-05-16T10:17:47.908Z,7.07
2019-05-16T10:20:36.697Z,6.33
2019-05-16T10:23:24.842Z,5.80
2019-05-16T10:26:12.359Z,6.30
2019-05-16T10:28:59.935Z,7.87
2019-05-16T10:31:52.802Z,7.57
2019-05-16T10:34:38.046Z,6.03
2019-05-16T10:37:26.869Z,6.50
2019-05-16T10:40:18.326Z,6.93
2019-05-16T10:43:07.077Z,6.17
2019-05-16T10:45:55.671Z,7.67
2019-05-16T10:48:43.186Z,6.90
2019-05-16T10:51:30.795Z,7.30
2019-05-16T10:54:18.642Z,8.20
2019-05-16T10:57:08.047Z,7.20
2019-05-16T11:00:06.823Z,6.37
2019-05-16T11:02:45.389Z,6.67
2019-05-16T11:05:36.441Z,6.43
2019-05-16T11:08:23.032Z,5.53
2019-05-16T11:11:10.511Z,5.90
2019-05-16T11:13:58.959Z,7.00
2019-05-16T11:16:47.369Z,6.57
2019-05-16T11:19:37.244Z,6.50
2019-05-16T11:22:29.422Z,7.43
2019-05-16T11:25:24.222Z,7.27
2019-05-16T11:28:03.615Z,7.60
2019-05-16T11:30:51.521Z,5.70
2019-05-16T11:33:41.251Z,10.00
2019-05-16T11:36:28.861Z,6.83
2019-05-16T11:39:17.396Z,7.63
2019-05-16T11:42:07.946Z,5.97
2019-05-16T11:44:57.941Z,5.80
2019-05-16T11:47:46.852Z,5.73
2019-05-16T11:50:33.684Z,6.47
2019-05-16T11:53:21.149Z,10.43
2019-05-16T11:56:09.216Z,4.93
2019-05-16T11:58:57.406Z,5.47
2019-05-16T12:01:47.504Z,5.20
2019-05-16T12:04:37.515Z,4.33
2019-05-16T12:07:32.358Z,4.80
2019-05-16T12:10:16.371Z,4.60
2019-05-16T12:13:07.353Z,4.37
2019-05-16T12:15:56.407Z,5.03
2019-05-16T12:18:43.376Z,5.60
2019-05-16T12:21:31.460Z,4.17
2019-05-16T12:24:31.529Z,4.33
2019-05-16T12:27:09.327Z,4.30
2019-05-16T12:29:58.952Z,5.40
2019-05-16T12:32:47.192Z,4.33
2019-05-16T12:35:36.877Z,6.77
2019-05-16T12:38:24.241Z,5.60
2019-05-16T12:41:12.485Z,6.43
2019-05-16T12:44:00.084Z,5.33
2019-05-16T12:46:47.633Z,9.23
2019-05-16T12:49:35.587Z,5.27
2019-05-16T12:52:23.644Z,5.23
2019-05-16T12:55:11.701Z,5.40
2019-05-16T12:58:12.621Z,4.73
2019-05-16T13:00:57.862Z,4.47
2019-05-16T13:03:38.942Z,4.80
2019-05-16T13:06:27.733Z,4.90
2019-05-16T13:09:18.267Z,5.60
2019-05-16T13:12:06.883Z,7.60
2019-05-16T13:14:54.549Z,6.03
2019-05-16T13:17:42.285Z,7.53
2019-05-16T13:20:30.047Z,5.23
2019-05-16T13:23:18.434Z,5.53
2019-05-16T13:26:07.375Z,5.40
2019-05-16T13:28:57.609Z,5.73
2019-05-16T13:31:47.627Z,4.93
2019-05-16T13:34:38.109Z,4.23
2019-05-16T13:37:24.341Z,5.70
2019-05-16T13:40:12.936Z,5.67
2019-05-16T13:43:00.865Z,4.30
2019-05-16T13:45:48.566Z,7.13
2019-05-16T13:48:37.613Z,6.67
2019-05-16T13:51:26.660Z,4.80
2019-05-16T13:54:14.883Z,5.23
2019-05-16T13:57:13.472Z,5.43
2019-05-16T14:00:07.600Z,4.50
2019-05-16T14:03:00.602Z,6.07
2019-05-16T14:06:02.652Z,4.37
2019-05-16T14:08:56.760Z,4.00
2019-05-16T14:12:07.015Z,4.47
2019-05-16T14:14:57.597Z,5.93
2019-05-16T14:17:52.922Z,6.43
2019-05-16T14:20:46.650Z,4.20
2019-05-16T14:23:38.323Z,4.80
2019-05-16T14:26:26.661Z,5.53
2019-05-16T14:29:20.534Z,5.93
2019-05-16T14:32:12.992Z,4.90
2019-05-16T14:35:53.236Z,4.70
2019-05-16T14:38:42.200Z,4.87
2019-05-16T14:41:32.897Z,5.40
2019-05-16T14:44:21.354Z,5.27
2019-05-16T14:47:13.912Z,4.20
2019-05-16T14:50:02.739Z,5.20
2019-05-16T14:52:52.757Z,4.03
2019-05-16T14:55:50.319Z,7.03
2019-05-16T14:58:41.142Z,4.00
2019-05-16T15:02:00.279Z,4.33
2019-05-16T15:05:28.436Z,4.60
2019-05-16T15:08:11.486Z,4.50
2019-05-16T15:11:07.417Z,4.53
2019-05-16T15:14:00.386Z,4.10
2019-05-16T15:16:51.902Z,4.33
2019-05-16T15:19:42.300Z,4.10
2019-05-16T15:22:33.001Z,4.00
2019-05-16T15:25:26.510Z,4.27
2019-05-16T15:28:30.390Z,3.60
2019-05-16T15:31:19.367Z,3.93
2019-05-16T15:34:47.620Z,5.57
2019-05-16T15:40:51.956Z,5.73
2019-05-16T15:43:40.552Z,4.30
2019-05-16T15:46:47.765Z,4.97
2019-05-16T15:49:23.229Z,4.20
2019-05-16T15:52:18.972Z,5.87
2019-05-16T15:55:10.013Z,3.70
2019-05-16T15:57:57.791Z,3.97
2019-05-16T16:00:52.827Z,3.83
2019-05-16T16:03:47.232Z,4.73
2019-05-16T16:06:32.072Z,4.23
2019-05-16T16:09:20.970Z,3.97
2019-05-16T16:12:11.397Z,4.60
2019-05-16T16:15:01.710Z,4.20
2019-05-16T16:17:50.303Z,3.67
2019-05-16T16:21:07.446Z,4.23
2019-05-16T16:23:57.318Z,4.23
2019-05-16T16:26:48.072Z,4.40
2019-05-16T16:29:37.534Z,4.37
2019-05-16T16:32:28.937Z,3.90
2019-05-16T16:35:21.098Z,5.00
2019-05-16T16:38:11.384Z,4.23
2019-05-16T16:41:00.757Z,6.83
2019-05-16T16:43:49.210Z,4.07
2019-05-16T16:46:38.418Z,4.57
2019-05-16T16:49:30.028Z,5.03
2019-05-16T16:52:22.126Z,4.13
2019-05-16T16:55:16.794Z,6.07
2019-05-16T17:01:21.092Z,4.27
2019-05-16T17:04:12.896Z,5.03
2019-05-16T17:07:02.379Z,3.90
2019-05-16T17:09:59.211Z,3.57
2019-05-16T17:12:57.345Z,3.83
2019-05-16T17:15:47.227Z,4.40
2019-05-16T17:18:37.265Z,3.60
2019-05-16T17:21:26.011Z,3.73
2019-05-16T17:24:16.823Z,4.13
2019-05-16T17:27:08.759Z,4.67
2019-05-16T17:30:00.604Z,4.40
2019-05-16T17:33:07.698Z,3.87
2019-05-16T17:35:56.134Z,6.57
2019-05-16T17:38:46.479Z,3.47
2019-05-16T17:41:36.722Z,4.47
2019-05-16T17:44:26.986Z,3.53
2019-05-16T17:47:17.329Z,6.03
2019-05-16T17:50:07.759Z,4.53
2019-05-16T17:52:58.506Z,4.27
2019-05-16T17:55:49.706Z,4.67
2019-05-16T17:58:38.543Z,6.57
2019-05-16T18:01:27.510Z,5.23
2019-05-16T18:04:19.461Z,3.87
2019-05-16T18:07:10.882Z,4.57
2019-05-16T18:10:27.075Z,8.10
2019-05-16T18:13:36.902Z,5.33
2019-05-16T18:16:24.064Z,3.80
2019-05-16T18:19:17.401Z,4.57
2019-05-16T18:22:07.308Z,4.27
2019-05-16T18:24:57.914Z,3.47
2019-05-16T18:27:46.046Z,3.93
2019-05-16T18:30:38.499Z,4.40
2019-05-16T18:33:27.749Z,4.03
2019-05-16T18:36:17.959Z,5.63
2019-05-16T18:39:12.134Z,6.43
2019-05-16T18:42:04.643Z,4.43
2019-05-16T18:44:56.471Z,4.53
2019-05-16T18:47:52.125Z,5.63
2019-05-16T18:50:47.710Z,5.40
2019-05-16T18:54:00.770Z,5.47
2019-05-16T18:56:52.284Z,5.20
2019-05-16T18:59:50.889Z,5.67
2019-05-16T19:02:39.129Z,5.63
2019-05-16T19:05:28.396Z,5.53
2019-05-16T19:08:38.347Z,8.23
2019-05-16T19:11:27.108Z,6.87
2019-05-16T19:14:30.185Z,10.03
2019-05-16T19:17:42.002Z,10.53
2019-05-16T19:21:13.952Z,11.20
2019-05-16T19:24:33.888Z,10.63
2019-05-16T19:27:41.763Z,8.77
2019-05-16T19:30:40.119Z,9.63
2019-05-16T19:33:40.873Z,10.23
2019-05-16T19:36:36.167Z,9.47
2019-05-16T19:39:31.185Z,9.13
2019-05-16T19:42:36.825Z,9.73
2019-05-16T19:45:31.323Z,9.77
2019-05-16T19:48:19.028Z,7.23
2019-05-16T19:51:12.850Z,10.20
2019-05-16T19:54:00.474Z,7.80
2019-05-16T19:56:48.518Z,7.87
2019-05-16T19:59:36.762Z,7.43
2019-05-16T20:02:24.761Z,6.70
2019-05-16T20:05:12.631Z,6.97
2019-05-16T20:08:00.253Z,7.33
2019-05-16T20:10:48.237Z,6.80
2019-05-16T20:13:36.693Z,8.13
2019-05-16T20:16:27.229Z,8.90
2019-05-16T20:19:14.446Z,8.00
2019-05-16T20:22:02.039Z,8.67
2019-05-16T20:24:49.869Z,8.30
2019-05-16T20:27:37.310Z,9.77
2019-05-16T20:30:26.386Z,8.13
2019-05-16T20:33:17.655Z,11.87
2019-05-16T20:36:06.293Z,8.33
2019-05-16T20:38:53.693Z,8.97
2019-05-16T20:41:41.454Z,8.27
2019-05-16T20:44:29.503Z,8.90
2019-05-16T20:47:17.131Z,9.63
2019-05-16T20:50:07.415Z,9.77
2019-05-16T20:52:54.575Z,9.80
2019-05-16T20:55:42.821Z,9.17
2019-05-16T20:58:31.495Z,12.43
2019-05-16T21:01:19.306Z,9.40
2019-05-16T21:04:07.120Z,9.23
2019-05-16T21:07:01.479Z,9.30
2019-05-16T21:09:44.445Z,9.87
2019-05-16T21:12:32.119Z,9.40
2019-05-16T21:15:19.961Z,9.70
2019-05-16T21:18:07.679Z,10.63
2019-05-16T21:20:57.496Z,11.87
2019-05-16T21:23:47.007Z,10.47
2019-05-16T21:26:36.662Z,9.90
2019-05-16T21:29:23.460Z,9.37
2019-05-16T21:32:11.408Z,9.87
2019-05-16T21:34:58.889Z,10.17
2019-05-16T21:37:46.817Z,9.73
2019-05-16T21:40:36.959Z,11.43
2019-05-16T21:43:24.002Z,10.17
2019-05-16T21:46:11.940Z,10.53
2019-05-16T21:48:59.649Z,10.00
2019-05-16T21:51:47.273Z,9.73
2019-05-16T21:54:36.710Z,10.63
2019-05-16T21:57:26.295Z,10.37
2019-05-16T22:00:21.399Z,10.37
2019-05-16T22:03:09.349Z,10.80
2019-05-16T22:05:57.838Z,11.90
2019-05-16T22:08:46.758Z,11.67
2019-05-16T22:11:36.950Z,10.93
2019-05-16T22:14:28.948Z,14.17
2019-05-16T22:17:16.967Z,13.27
2019-05-16T22:20:13.039Z,11.67
2019-05-16T22:23:03.037Z,11.77
2019-05-16T22:25:59.926Z,12.03
2019-05-16T22:28:52.117Z,12.83
2019-05-16T22:31:47.105Z,11.77
2019-05-16T22:34:49.854Z,13.13
2019-05-16T22:38:20.935Z,13.13
2019-05-16T22:41:58.771Z,16.13
2019-05-16T22:44:51.800Z,13.17
2019-05-16T22:47:48.003Z,15.13
2019-05-16T22:50:47.646Z,15.50
2019-05-16T22:53:41.736Z,15.13
2019-05-16T22:56:57.175Z,14.77
2019-05-16T22:59:51.588Z,16.10
2019-05-16T23:02:41.898Z,16.53
2019-05-16T23:05:41.418Z,15.73
2019-05-16T23:08:39.676Z,15.17
2019-05-16T23:11:37.334Z,14.07
2019-05-16T23:14:38.285Z,17.37
2019-05-16T23:17:26.739Z,17.90
2019-05-16T23:20:30.264Z,17.53
2019-05-16T23:23:22.991Z,20.03
2019-05-16T23:26:26.713Z,17.47
2019-05-16T23:29:28.461Z,19.33
2019-05-16T23:32:19.999Z,17.83
2019-05-16T23:35:15.569Z,15.30
2019-05-16T23:38:18.125Z,17.13
2019-05-16T23:40:57.044Z,19.03
2019-05-16T23:43:51.207Z,17.30
2019-05-16T23:46:40.975Z,17.83
2019-05-16T23:49:36.696Z,20.70
2019-05-16T23:55:41.859Z,19.00
2019-05-16T23:58:57.134Z,17.57
